sensor_id;sensor_type;location;lat;lon;timestamp;pressure;altitude;pressure_sealevel;temperature;humidity
12913;BME280;6524;51.368;11.984;2023-02-12T00:04:28;102201.63;;;17.92;54.67
12913;BME280;6524;51.368;11.984;2023-02-12T00:09:28;102202.88;;;17.53;55.86
12913;BME280;6524;51.368;11.984;2023-02-12T00:14:29;102210.34;;;16.83;57.93
12913;BME280;6524;51.368;11.984;2023-02-12T00:19:29;102206.59;;;16.59;58.09
12913;BME280;6524;51.368;11.984;2023-02-12T00:24:30;102202.88;;;16.97;57.58
12913;BME280;6524;51.368;11.984;2023-02-12T00:29:30;102199.84;;;17.11;57.25
12913;BME280;6524;51.368;11.984;2023-02-12T00:34:31;102195.66;;;17.04;56.60
12913;BME280;6524;51.368;11.984;2023-02-12T00:39:31;102193.97;;;16.70;58.25
12913;BME280;6524;51.368;11.984;2023-02-12T00:44:32;102210.88;;;17.52;55.66
12913;BME280;6524;51.368;11.984;2023-02-12T00:49:32;102210.94;;;16.93;57.57
12913;BME280;6524;51.368;11.984;2023-02-12T00:54:36;102211.44;;;16.74;57.94
12913;BME280;6524;51.368;11.984;2023-02-12T00:59:36;102228.63;;;16.87;57.25
12913;BME280;6524;51.368;11.984;2023-02-12T01:04:39;102225.13;;;17.17;56.43
12913;BME280;6524;51.368;11.984;2023-02-12T01:09:39;102226.81;;;17.19;56.61
12913;BME280;6524;51.368;11.984;2023-02-12T01:14:40;102229.22;;;17.27;56.46
12913;BME280;6524;51.368;11.984;2023-02-12T01:19:40;102235.19;;;17.60;55.36
12913;BME280;6524;51.368;11.984;2023-02-12T05:04:25;102322.28;;;17.30;57.80
12913;BME280;6524;51.368;11.984;2023-02-12T05:09:27;102311.72;;;17.30;57.78
12913;BME280;6524;51.368;11.984;2023-02-12T05:14:27;102307.31;;;17.31;58.04
12913;BME280;6524;51.368;11.984;2023-02-12T05:19:28;102309.34;;;17.51;57.22
12913;BME280;6524;51.368;11.984;2023-02-12T05:24:28;102306.25;;;17.07;58.24
12913;BME280;6524;51.368;11.984;2023-02-12T05:29:29;102298.28;;;17.40;57.41
12913;BME280;6524;51.368;11.984;2023-02-12T05:34:29;102312.88;;;16.91;58.60
12913;BME280;6524;51.368;11.984;2023-02-12T05:39:30;102316.91;;;17.33;57.56
12913;BME280;6524;51.368;11.984;2023-02-12T05:44:30;102314.25;;;17.63;56.46
12913;BME280;6524;51.368;11.984;2023-02-12T05:49:31;102309.91;;;17.61;56.34
12913;BME280;6524;51.368;11.984;2023-02-12T05:54:31;102318.00;;;17.54;56.56
12913;BME280;6524;51.368;11.984;2023-02-12T05:59:31;102318.72;;;17.02;58.13
12913;BME280;6524;51.368;11.984;2023-02-12T06:04:32;102323.91;;;17.34;57.46
12913;BME280;6524;51.368;11.984;2023-02-12T06:09:33;102328.06;;;17.71;56.30
12913;BME280;6524;51.368;11.984;2023-02-12T06:14:34;102336.28;;;17.61;56.59
12913;BME280;6524;51.368;11.984;2023-02-12T06:19:35;102339.00;;;16.98;58.83
12913;BME280;6524;51.368;11.984;2023-02-12T06:24:36;102343.47;;;16.62;59.61
12913;BME280;6524;51.368;11.984;2023-02-12T06:29:36;102348.34;;;17.10;58.21
12913;BME280;6524;51.368;11.984;2023-02-12T06:34:37;102346.94;;;16.64;59.53
12913;BME280;6524;51.368;11.984;2023-02-12T06:39:37;102356.63;;;16.96;58.91
12913;BME280;6524;51.368;11.984;2023-02-12T06:44:38;102358.41;;;16.96;58.64
12913;BME280;6524;51.368;11.984;2023-02-12T06:49:38;102367.81;;;17.35;57.92
12913;BME280;6524;51.368;11.984;2023-02-12T06:54:39;102367.59;;;16.79;59.18
12913;BME280;6524;51.368;11.984;2023-02-12T06:59:39;102381.53;;;16.84;58.58
12913;BME280;6524;51.368;11.984;2023-02-12T07:04:40;102385.72;;;16.92;58.57
12913;BME280;6524;51.368;11.984;2023-02-12T07:09:43;102385.81;;;17.21;58.10
12913;BME280;6524;51.368;11.984;2023-02-12T07:14:44;102390.59;;;17.07;58.58
12913;BME280;6524;51.368;11.984;2023-02-12T07:19:45;102389.69;;;17.08;58.19
12913;BME280;6524;51.368;11.984;2023-02-12T07:24:46;102395.28;;;17.28;57.43
12913;BME280;6524;51.368;11.984;2023-02-12T07:29:47;102407.16;;;17.12;57.98
12913;BME280;6524;51.368;11.984;2023-02-12T07:34:48;102404.81;;;17.32;57.95
12913;BME280;6524;51.368;11.984;2023-02-12T07:39:49;102404.91;;;17.29;57.56
12913;BME280;6524;51.368;11.984;2023-02-12T07:44:49;102416.28;;;17.61;57.19
12913;BME280;6524;51.368;11.984;2023-02-12T07:49:50;102418.69;;;17.39;57.23
12913;BME280;6524;51.368;11.984;2023-02-12T07:54:50;102415.84;;;17.76;56.28
12913;BME280;6524;51.368;11.984;2023-02-12T07:59:51;102420.28;;;17.45;57.32
12913;BME280;6524;51.368;11.984;2023-02-12T08:04:56;102431.06;;;17.98;55.95
12913;BME280;6524;51.368;11.984;2023-02-12T08:09:57;102436.34;;;17.98;56.03
12913;BME280;6524;51.368;11.984;2023-02-12T08:14:57;102442.97;;;17.52;57.00
12913;BME280;6524;51.368;11.984;2023-02-12T08:19:58;102435.50;;;17.66;56.92
12913;BME280;6524;51.368;11.984;2023-02-12T08:24:58;102447.28;;;17.86;56.31
12913;BME280;6524;51.368;11.984;2023-02-12T08:29:59;102450.78;;;17.55;57.41
12913;BME280;6524;51.368;11.984;2023-02-12T08:34:59;102451.50;;;17.29;58.21
12913;BME280;6524;51.368;11.984;2023-02-12T08:40:01;102446.63;;;17.14;58.76
12913;BME280;6524;51.368;11.984;2023-02-12T08:45:01;102445.78;;;16.79;59.77
12913;BME280;6524;51.368;11.984;2023-02-12T08:50:02;102450.03;;;17.50;58.26
12913;BME280;6524;51.368;11.984;2023-02-12T08:55:03;102456.19;;;17.82;57.27
12913;BME280;6524;51.368;11.984;2023-02-12T09:00:05;102466.81;;;17.80;57.37
12913;BME280;6524;51.368;11.984;2023-02-12T09:05:06;102472.19;;;17.75;57.51
12913;BME280;6524;51.368;11.984;2023-02-12T09:10:07;102468.13;;;17.95;57.13
12913;BME280;6524;51.368;11.984;2023-02-12T09:15:07;102478.03;;;18.16;56.37
12913;BME280;6524;51.368;11.984;2023-02-12T09:20:08;102484.13;;;17.89;57.59
12913;BME280;6524;51.368;11.984;2023-02-12T09:25:09;102492.16;;;18.15;56.88
12913;BME280;6524;51.368;11.984;2023-02-12T09:30:12;102498.50;;;18.38;56.15
12913;BME280;6524;51.368;11.984;2023-02-12T09:35:13;102507.56;;;18.29;56.39
12913;BME280;6524;51.368;11.984;2023-02-12T09:45:56;102513.03;;;18.81;55.35
12913;BME280;6524;51.368;11.984;2023-02-12T09:51:03;102520.59;;;18.63;56.01
12913;BME280;6524;51.368;11.984;2023-02-12T09:56:15;102532.66;;;18.44;56.76
12913;BME280;6524;51.368;11.984;2023-02-12T10:01:21;102532.38;;;18.53;56.36
12913;BME280;6524;51.368;11.984;2023-02-12T10:06:28;102528.03;;;19.05;55.12
12913;BME280;6524;51.368;11.984;2023-02-12T10:17:41;102532.50;;;18.77;55.64
12913;BME280;6524;51.368;11.984;2023-02-12T10:23:19;102527.91;;;18.55;55.96
12913;BME280;6524;51.368;11.984;2023-02-12T10:28:26;102520.03;;;18.82;54.95
12913;BME280;6524;51.368;11.984;2023-02-12T10:33:43;102523.38;;;18.87;55.08
12913;BME280;6524;51.368;11.984;2023-02-12T10:38:48;102519.09;;;19.09;54.41
12913;BME280;6524;51.368;11.984;2023-02-12T10:43:49;102514.84;;;18.79;55.71
12913;BME280;6524;51.368;11.984;2023-02-12T10:48:52;102509.38;;;17.99;57.76
12913;BME280;6524;51.368;11.984;2023-02-12T10:54:30;102509.97;;;18.07;57.11
12913;BME280;6524;51.368;11.984;2023-02-12T10:59:31;102507.06;;;18.46;56.02
12913;BME280;6524;51.368;11.984;2023-02-12T11:04:32;102508.63;;;19.06;54.76
12913;BME280;6524;51.368;11.984;2023-02-12T11:09:41;102509.16;;;18.91;55.13
12913;BME280;6524;51.368;11.984;2023-02-12T11:14:53;102504.91;;;18.85;55.39
12913;BME280;6524;51.368;11.984;2023-02-12T11:25:15;102507.25;;;18.94;54.99
12913;BME280;6524;51.368;11.984;2023-02-12T11:30:18;102507.53;;;18.87;55.24
12913;BME280;6524;51.368;11.984;2023-02-12T11:35:22;102501.38;;;19.11;55.00
12913;BME280;6524;51.368;11.984;2023-02-12T11:40:27;102503.91;;;18.61;56.16
12913;BME280;6524;51.368;11.984;2023-02-12T11:45:31;102497.53;;;18.68;55.86
12913;BME280;6524;51.368;11.984;2023-02-12T11:50:33;102489.91;;;18.86;55.86
12913;BME280;6524;51.368;11.984;2023-02-12T11:55:37;102495.31;;;19.09;55.20
12913;BME280;6524;51.368;11.984;2023-02-12T12:06:00;102492.03;;;19.53;53.89
12913;BME280;6524;51.368;11.984;2023-02-12T12:11:10;102493.75;;;19.29;54.50
12913;BME280;6524;51.368;11.984;2023-02-12T12:16:18;102491.81;;;19.34;54.32
12913;BME280;6524;51.368;11.984;2023-02-12T12:21:54;102499.38;;;19.70;53.39
12913;BME280;6524;51.368;11.984;2023-02-12T12:27:02;102490.19;;;21.12;49.79
12913;BME280;6524;51.368;11.984;2023-02-12T12:32:04;102497.53;;;19.72;53.44
12913;BME280;6524;51.368;11.984;2023-02-12T12:53:38;102479.00;;;18.42;56.90
12913;BME280;6524;51.368;11.984;2023-02-12T13:09:57;102459.53;;;19.24;54.79
12913;BME280;6524;51.368;11.984;2023-02-12T13:26:10;102450.59;;;19.27;54.85
12913;BME280;6524;51.368;11.984;2023-02-12T13:31:09;102453.06;;;19.56;53.85
12913;BME280;6524;51.368;11.984;2023-02-12T13:36:13;102452.69;;;19.91;53.58
12913;BME280;6524;51.368;11.984;2023-02-12T13:41:14;102456.41;;;19.61;53.82
12913;BME280;6524;51.368;11.984;2023-02-12T13:56:42;102447.00;;;20.45;51.07
12913;BME280;6524;51.368;11.984;2023-02-12T14:01:44;102448.09;;;20.18;51.56
12913;BME280;6524;51.368;11.984;2023-02-12T14:07:07;102455.06;;;20.20;51.43
12913;BME280;6524;51.368;11.984;2023-02-12T14:12:30;102439.84;;;20.25;51.13
12913;BME280;6524;51.368;11.984;2023-02-12T14:27:44;102442.44;;;20.27;50.09
12913;BME280;6524;51.368;11.984;2023-02-12T14:37:55;102430.47;;;20.39;50.71
12913;BME280;6524;51.368;11.984;2023-02-12T14:42:56;102431.16;;;20.66;50.51
12913;BME280;6524;51.368;11.984;2023-02-12T14:47:57;102422.06;;;20.71;49.03
12913;BME280;6524;51.368;11.984;2023-02-12T14:53:20;102434.41;;;20.50;49.31
12913;BME280;6524;51.368;11.984;2023-02-12T14:58:24;102434.91;;;20.38;50.21
12913;BME280;6524;51.368;11.984;2023-02-12T15:03:42;102443.34;;;20.48;49.50
12913;BME280;6524;51.368;11.984;2023-02-12T15:09:13;102435.91;;;20.58;49.94
12913;BME280;6524;51.368;11.984;2023-02-12T15:14:25;102445.03;;;20.28;51.05
12913;BME280;6524;51.368;11.984;2023-02-12T15:19:47;102448.47;;;20.30;50.95
12913;BME280;6524;51.368;11.984;2023-02-12T15:24:49;102439.38;;;20.60;50.48
12913;BME280;6524;51.368;11.984;2023-02-12T15:29:51;102437.81;;;20.32;50.57
12913;BME280;6524;51.368;11.984;2023-02-12T15:34:53;102440.47;;;20.32;51.22
12913;BME280;6524;51.368;11.984;2023-02-12T15:39:57;102451.34;;;20.02;51.42
12913;BME280;6524;51.368;11.984;2023-02-12T15:50:16;102457.44;;;20.04;51.67
12913;BME280;6524;51.368;11.984;2023-02-12T15:55:24;102457.91;;;19.92;51.76
12913;BME280;6524;51.368;11.984;2023-02-12T16:00:29;102450.69;;;20.19;51.27
12913;BME280;6524;51.368;11.984;2023-02-12T16:05:31;102462.09;;;20.43;51.22
12913;BME280;6524;51.368;11.984;2023-02-12T16:10:32;102454.41;;;20.15;51.61
12913;BME280;6524;51.368;11.984;2023-02-12T16:15:33;102455.91;;;20.21;51.45
12913;BME280;6524;51.368;11.984;2023-02-12T16:20:37;102460.69;;;20.13;52.08
12913;BME280;6524;51.368;11.984;2023-02-12T16:25:37;102453.84;;;19.83;53.01
12913;BME280;6524;51.368;11.984;2023-02-12T16:30:40;102455.13;;;19.97;52.44
12913;BME280;6524;51.368;11.984;2023-02-12T16:35:42;102467.09;;;20.29;51.54
12913;BME280;6524;51.368;11.984;2023-02-12T16:46:18;102475.03;;;19.58;53.31
12913;BME280;6524;51.368;11.984;2023-02-12T16:51:27;102482.91;;;19.85;52.86
12913;BME280;6524;51.368;11.984;2023-02-12T16:56:33;102487.59;;;19.28;54.35
12913;BME280;6524;51.368;11.984;2023-02-12T17:01:36;102485.59;;;18.83;55.66
12913;BME280;6524;51.368;11.984;2023-02-12T17:06:37;102490.69;;;18.61;56.08
12913;BME280;6524;51.368;11.984;2023-02-12T17:11:37;102488.56;;;18.46;56.71
12913;BME280;6524;51.368;11.984;2023-02-12T17:16:38;102489.50;;;18.98;55.22
12913;BME280;6524;51.368;11.984;2023-02-12T17:21:43;102485.31;;;18.64;56.26
12913;BME280;6524;51.368;11.984;2023-02-12T17:26:45;102494.88;;;18.97;55.17
12913;BME280;6524;51.368;11.984;2023-02-12T17:31:50;102496.84;;;18.90;55.28
12913;BME280;6524;51.368;11.984;2023-02-12T17:36:54;102489.63;;;18.67;55.61
12913;BME280;6524;51.368;11.984;2023-02-12T17:41:55;102495.41;;;18.52;56.03
12913;BME280;6524;51.368;11.984;2023-02-12T17:46:57;102496.63;;;17.84;57.96
12913;BME280;6524;51.368;11.984;2023-02-12T17:51:58;102483.69;;;18.60;55.52
12913;BME280;6524;51.368;11.984;2023-02-12T17:56:59;102485.13;;;18.14;57.12
12913;BME280;6524;51.368;11.984;2023-02-12T18:02:03;102490.41;;;18.14;56.63
12913;BME280;6524;51.368;11.984;2023-02-12T18:07:04;102495.28;;;18.84;54.76
12913;BME280;6524;51.368;11.984;2023-02-12T18:12:06;102489.03;;;18.87;54.89
12913;BME280;6524;51.368;11.984;2023-02-12T18:17:07;102492.53;;;18.87;54.78
12913;BME280;6524;51.368;11.984;2023-02-12T18:22:07;102497.72;;;18.62;54.90
12913;BME280;6524;51.368;11.984;2023-02-12T18:27:08;102495.31;;;18.83;54.24
12913;BME280;6524;51.368;11.984;2023-02-12T18:32:08;102499.97;;;19.01;53.64
12913;BME280;6524;51.368;11.984;2023-02-12T18:37:13;102497.38;;;17.87;56.49
12913;BME280;6524;51.368;11.984;2023-02-12T18:42:14;102496.69;;;18.66;54.91
12913;BME280;6524;51.368;11.984;2023-02-12T18:47:15;102500.59;;;18.26;56.33
12913;BME280;6524;51.368;11.984;2023-02-12T18:52:16;102502.63;;;18.18;56.41
12913;BME280;6524;51.368;11.984;2023-02-12T18:57:17;102504.78;;;18.90;54.49
12913;BME280;6524;51.368;11.984;2023-02-12T19:02:19;102498.84;;;19.08;53.90
12913;BME280;6524;51.368;11.984;2023-02-12T19:07:20;102505.38;;;18.98;53.75
12913;BME280;6524;51.368;11.984;2023-02-12T19:12:21;102504.19;;;18.80;54.61
12913;BME280;6524;51.368;11.984;2023-02-12T19:17:21;102498.47;;;18.66;54.79
12913;BME280;6524;51.368;11.984;2023-02-12T19:22:22;102495.50;;;18.77;54.70
12913;BME280;6524;51.368;11.984;2023-02-12T19:27:22;102500.84;;;18.47;55.81
12913;BME280;6524;51.368;11.984;2023-02-12T19:32:22;102493.97;;;18.13;56.18
12913;BME280;6524;51.368;11.984;2023-02-12T19:37:23;102502.06;;;18.37;55.66
12913;BME280;6524;51.368;11.984;2023-02-12T19:42:23;102506.97;;;18.49;55.42
12913;BME280;6524;51.368;11.984;2023-02-12T19:47:23;102507.72;;;18.53;55.23
12913;BME280;6524;51.368;11.984;2023-02-12T19:52:24;102506.34;;;18.11;56.03
12913;BME280;6524;51.368;11.984;2023-02-12T19:57:25;102494.50;;;17.95;56.84
12913;BME280;6524;51.368;11.984;2023-02-12T20:02:29;102502.81;;;18.12;56.02
12913;BME280;6524;51.368;11.984;2023-02-12T20:07:36;102507.72;;;18.24;55.63
12913;BME280;6524;51.368;11.984;2023-02-12T20:12:42;102513.41;;;17.81;56.83
12913;BME280;6524;51.368;11.984;2023-02-12T20:17:42;102512.19;;;17.93;56.55
12913;BME280;6524;51.368;11.984;2023-02-12T20:22:43;102519.19;;;17.94;56.62
12913;BME280;6524;51.368;11.984;2023-02-12T20:27:43;102515.19;;;18.10;56.06
12913;BME280;6524;51.368;11.984;2023-02-12T20:32:43;102515.34;;;18.04;56.73
12913;BME280;6524;51.368;11.984;2023-02-12T20:37:44;102509.19;;;18.33;55.64
12913;BME280;6524;51.368;11.984;2023-02-12T20:42:45;102513.25;;;17.86;56.37
12913;BME280;6524;51.368;11.984;2023-02-12T20:47:45;102511.28;;;17.92;56.82
12913;BME280;6524;51.368;11.984;2023-02-12T20:52:45;102511.44;;;17.22;58.10
12913;BME280;6524;51.368;11.984;2023-02-12T20:57:46;102518.00;;;18.04;55.93
12913;BME280;6524;51.368;11.984;2023-02-12T21:02:48;102517.41;;;17.94;56.22
12913;BME280;6524;51.368;11.984;2023-02-12T21:07:49;102511.09;;;17.67;56.34
12913;BME280;6524;51.368;11.984;2023-02-12T21:12:50;102518.91;;;18.03;56.02
12913;BME280;6524;51.368;11.984;2023-02-12T21:17:50;102522.19;;;18.11;55.51
12913;BME280;6524;51.368;11.984;2023-02-12T21:22:51;102511.16;;;18.83;53.44
12913;BME280;6524;51.368;11.984;2023-02-12T21:27:51;102525.34;;;18.52;54.55
12913;BME280;6524;51.368;11.984;2023-02-12T21:32:52;102521.06;;;18.48;54.44
12913;BME280;6524;51.368;11.984;2023-02-12T21:37:53;102530.38;;;18.32;55.05
12913;BME280;6524;51.368;11.984;2023-02-12T21:42:53;102528.47;;;18.37;54.51
12913;BME280;6524;51.368;11.984;2023-02-12T21:47:54;102528.47;;;18.37;54.32
12913;BME280;6524;51.368;11.984;2023-02-12T21:52:54;102522.38;;;18.33;54.69
12913;BME280;6524;51.368;11.984;2023-02-12T21:57:55;102521.91;;;18.48;54.01
12913;BME280;6524;51.368;11.984;2023-02-12T22:02:55;102519.91;;;18.57;53.70
12913;BME280;6524;51.368;11.984;2023-02-12T22:07:56;102524.91;;;18.38;53.99
12913;BME280;6524;51.368;11.984;2023-02-12T22:12:56;102530.31;;;18.33;54.19
12913;BME280;6524;51.368;11.984;2023-02-12T22:17:56;102533.22;;;17.96;55.31
12913;BME280;6524;51.368;11.984;2023-02-12T22:22:57;102529.22;;;18.12;54.86
12913;BME280;6524;51.368;11.984;2023-02-12T22:27:57;102527.75;;;18.02;54.93
12913;BME280;6524;51.368;11.984;2023-02-12T22:32:57;102528.72;;;17.98;55.38
12913;BME280;6524;51.368;11.984;2023-02-12T22:37:58;102530.09;;;18.41;54.18
12913;BME280;6524;51.368;11.984;2023-02-12T22:42:58;102527.28;;;18.17;54.67
12913;BME280;6524;51.368;11.984;2023-02-12T22:47:59;102532.81;;;18.08;54.88
12913;BME280;6524;51.368;11.984;2023-02-12T22:53:00;102537.63;;;18.25;54.65
12913;BME280;6524;51.368;11.984;2023-02-12T22:58:01;102530.19;;;18.38;53.54
12913;BME280;6524;51.368;11.984;2023-02-12T23:03:01;102536.28;;;18.10;54.79
12913;BME280;6524;51.368;11.984;2023-02-12T23:08:03;102539.34;;;17.96;55.28
12913;BME280;6524;51.368;11.984;2023-02-12T23:13:03;102534.63;;;18.37;53.92
12913;BME280;6524;51.368;11.984;2023-02-12T23:18:04;102528.56;;;18.34;54.21
12913;BME280;6524;51.368;11.984;2023-02-12T23:23:04;102529.53;;;18.30;54.28
12913;BME280;6524;51.368;11.984;2023-02-12T23:28:04;102533.47;;;18.46;53.69
12913;BME280;6524;51.368;11.984;2023-02-12T23:33:05;102538.06;;;18.39;53.75
12913;BME280;6524;51.368;11.984;2023-02-12T23:38:05;102534.28;;;18.48;53.67
12913;BME280;6524;51.368;11.984;2023-02-12T23:43:06;102531.00;;;18.10;54.41
12913;BME280;6524;51.368;11.984;2023-02-12T23:48:06;102540.28;;;17.94;54.69
12913;BME280;6524;51.368;11.984;2023-02-12T23:53:07;102538.31;;;18.32;54.11
12913;BME280;6524;51.368;11.984;2023-02-12T23:58:09;102529.06;;;18.46;53.19
